createdAt,value
2017-08-06T00:00:40.829Z,934.88
2017-08-06T00:01:25.415Z,934.85
2017-08-06T00:01:38.899Z,934.85
2017-08-06T00:01:52.413Z,934.87
2017-08-06T00:02:56.438Z,934.88
2017-08-06T00:03:53.867Z,934.88
2017-08-06T00:04:33.725Z,934.88
2017-08-06T00:04:47.190Z,934.88
2017-08-06T00:05:00.259Z,934.86
2017-08-06T00:05:13.160Z,934.84
2017-08-06T00:05:27.434Z,934.86
2017-08-06T00:05:40.888Z,934.86
2017-08-06T00:05:54.340Z,934.84
2017-08-06T00:06:08.077Z,934.84
2017-08-06T00:06:21.495Z,934.88
2017-08-06T00:06:34.928Z,934.89
2017-08-06T00:06:47.884Z,934.9
2017-08-06T00:07:01.260Z,934.91
2017-08-06T00:07:14.742Z,934.87
2017-08-06T00:07:28.106Z,934.88
2017-08-06T00:07:41.892Z,934.86
2017-08-06T00:07:54.839Z,934.88
2017-08-06T00:08:07.821Z,934.87
2017-08-06T00:08:21.236Z,934.87
2017-08-06T00:08:33.682Z,934.9
2017-08-06T00:08:47.373Z,934.89
2017-08-06T00:09:00.852Z,934.89
2017-08-06T00:09:13.744Z,934.92
2017-08-06T00:09:25.594Z,934.92
2017-08-06T00:09:39.053Z,934.89
2017-08-06T00:09:52.536Z,934.88
2017-08-06T00:10:05.946Z,934.91
2017-08-06T00:10:18.970Z,934.89
2017-08-06T00:10:32.446Z,934.85
2017-08-06T00:10:44.767Z,934.92
2017-08-06T00:10:58.286Z,934.9
2017-08-06T00:11:10.704Z,934.88
2017-08-06T00:11:24.121Z,934.9
2017-08-06T00:11:37.638Z,934.91
2017-08-06T00:11:50.824Z,934.91
2017-08-06T00:12:04.329Z,934.92
2017-08-06T00:12:17.775Z,934.92
2017-08-06T00:12:31.247Z,934.91
2017-08-06T00:12:45.397Z,934.92
2017-08-06T00:12:58.845Z,934.86
2017-08-06T00:13:11.778Z,934.89
2017-08-06T00:13:25.177Z,934.89
2017-08-06T00:13:38.068Z,934.9
2017-08-06T00:13:51.529Z,934.87
2017-08-06T00:14:04.949Z,934.86
2017-08-06T00:14:17.405Z,934.89
2017-08-06T00:14:30.907Z,934.93
2017-08-06T00:14:43.893Z,934.92
2017-08-06T00:14:56.838Z,934.91
2017-08-06T00:15:09.732Z,934.93
2017-08-06T00:15:22.060Z,934.89
2017-08-06T00:15:35.532Z,934.88
2017-08-06T00:15:49.060Z,934.88
2017-08-06T00:16:02.452Z,934.89
2017-08-06T00:16:15.953Z,934.93
2017-08-06T00:16:28.815Z,934.93
2017-08-06T00:16:43.084Z,934.91
2017-08-06T00:16:56.522Z,934.89
2017-08-06T00:17:10.000Z,934.85
2017-08-06T00:17:23.554Z,934.88
2017-08-06T00:17:37.110Z,934.9
2017-08-06T00:17:50.537Z,934.92
2017-08-06T00:18:04.059Z,934.89
2017-08-06T00:18:17.497Z,934.92
2017-08-06T00:18:30.940Z,934.89
2017-08-06T00:18:44.334Z,934.89
2017-08-06T00:18:57.763Z,934.9
2017-08-06T00:19:11.247Z,934.89
2017-08-06T00:19:24.183Z,934.89
2017-08-06T00:19:37.599Z,934.86
2017-08-06T00:19:51.039Z,934.9
2017-08-06T00:20:04.517Z,934.9
2017-08-06T00:20:17.978Z,934.9
2017-08-06T00:20:31.375Z,934.89
2017-08-06T00:20:44.918Z,934.93
2017-08-06T00:20:58.360Z,934.89
2017-08-06T00:21:11.798Z,934.92
2017-08-06T00:21:25.231Z,934.89
2017-08-06T00:21:38.635Z,934.88
2017-08-06T00:21:52.298Z,934.88
2017-08-06T00:22:05.792Z,934.83
2017-08-06T00:22:18.678Z,934.87
2017-08-06T00:22:32.135Z,934.86
2017-08-06T00:22:55.939Z,934.84
2017-08-06T00:23:09.367Z,934.87
2017-08-06T00:23:53.435Z,934.83
2017-08-06T00:24:06.393Z,934.84
2017-08-06T00:24:18.755Z,934.86
2017-08-06T00:24:31.597Z,934.87
2017-08-06T00:24:44.987Z,934.88
2017-08-06T00:24:58.400Z,934.87
2017-08-06T00:25:11.941Z,934.89
2017-08-06T00:25:25.406Z,934.86
2017-08-06T00:25:38.789Z,934.91
2017-08-06T00:25:52.263Z,934.86
2017-08-06T00:26:05.654Z,934.86
2017-08-06T00:26:17.997Z,934.89
2017-08-06T00:26:31.399Z,934.89
2017-08-06T00:26:44.887Z,934.86
2017-08-06T00:26:58.278Z,934.9
2017-08-06T00:27:11.678Z,934.89
2017-08-06T00:27:25.108Z,934.89
2017-08-06T00:27:38.523Z,934.89
2017-08-06T00:27:51.452Z,934.91
2017-08-06T00:28:04.328Z,934.88
2017-08-06T00:28:17.354Z,934.89
2017-08-06T00:28:30.858Z,934.88
2017-08-06T00:28:44.337Z,934.88
2017-08-06T00:28:57.718Z,934.9
2017-08-06T00:29:11.197Z,934.92
2017-08-06T00:29:24.082Z,934.91
2017-08-06T00:29:37.541Z,934.91
2017-08-06T00:29:50.952Z,934.93
2017-08-06T00:30:04.356Z,934.91
2017-08-06T00:30:17.804Z,934.9
2017-08-06T00:30:31.294Z,934.89
2017-08-06T00:30:44.709Z,934.91
2017-08-06T00:30:57.136Z,934.94
2017-08-06T00:31:10.550Z,934.92
2017-08-06T00:31:23.988Z,934.93
2017-08-06T00:31:37.430Z,934.98
2017-08-06T00:31:50.845Z,934.93
2017-08-06T00:32:03.700Z,934.97
2017-08-06T00:32:17.116Z,935.02
2017-08-06T00:32:30.517Z,934.98
2017-08-06T00:32:43.932Z,934.99
2017-08-06T00:32:57.395Z,934.99
2017-08-06T00:33:09.795Z,935
2017-08-06T00:33:22.171Z,935.02
2017-08-06T00:33:35.603Z,934.99
2017-08-06T00:33:48.703Z,934.96
2017-08-06T00:34:02.062Z,935
2017-08-06T00:34:14.934Z,935
2017-08-06T00:34:28.300Z,934.99
2017-08-06T00:34:41.720Z,934.97
2017-08-06T00:34:55.156Z,934.98
2017-08-06T00:35:08.578Z,935.02
2017-08-06T00:35:22.007Z,934.99
2017-08-06T00:35:35.463Z,935.03
2017-08-06T00:35:48.868Z,935.01
2017-08-06T00:36:01.246Z,934.98
2017-08-06T00:36:14.716Z,935.02
2017-08-06T00:36:28.171Z,934.95
2017-08-06T00:36:41.125Z,935.01
2017-08-06T00:36:54.529Z,935.02
2017-08-06T00:37:07.436Z,934.99
2017-08-06T00:37:20.412Z,935.05
2017-08-06T00:37:32.242Z,934.99
2017-08-06T00:37:45.917Z,935.02
2017-08-06T00:37:59.405Z,934.98
2017-08-06T00:38:12.843Z,934.98
2017-08-06T00:38:25.816Z,935.01
2017-08-06T00:38:39.275Z,934.99
2017-08-06T00:38:52.719Z,935.05
2017-08-06T00:39:05.675Z,935.03
2017-08-06T00:39:19.189Z,935.02
2017-08-06T00:39:32.109Z,935.03
2017-08-06T00:39:45.539Z,935.04
2017-08-06T00:39:58.462Z,935.03
2017-08-06T00:40:11.924Z,935.07
2017-08-06T00:40:24.877Z,935.04
2017-08-06T00:40:37.804Z,935.02
2017-08-06T00:40:50.194Z,935.07
2017-08-06T00:41:03.114Z,935.06
2017-08-06T00:41:16.539Z,935.09
2017-08-06T00:41:29.969Z,935.09
2017-08-06T00:41:42.335Z,935.1
2017-08-06T00:41:55.738Z,935.07
2017-08-06T00:42:08.661Z,935.11
2017-08-06T00:42:22.094Z,935.1
2017-08-06T00:42:35.008Z,935.14
2017-08-06T00:42:48.660Z,935.13
2017-08-06T00:43:01.558Z,935.1
2017-08-06T00:43:15.031Z,935.11
2017-08-06T00:43:27.969Z,935.11
2017-08-06T00:43:41.426Z,935.09
2017-08-06T00:43:54.913Z,935.1
2017-08-06T00:44:08.379Z,935.12
2017-08-06T00:44:21.833Z,935.15
2017-08-06T00:44:35.274Z,935.12
2017-08-06T00:44:48.703Z,935.11
2017-08-06T00:45:02.154Z,935.11
2017-08-06T00:45:15.608Z,935.1
2017-08-06T00:45:29.049Z,935.05
2017-08-06T00:45:42.477Z,935.07
2017-08-06T00:45:55.949Z,935.08
2017-08-06T00:46:09.406Z,935.11
2017-08-06T00:46:21.829Z,935.08
2017-08-06T00:46:34.764Z,935.11
2017-08-06T00:46:47.693Z,935.1
2017-08-06T00:47:01.097Z,935.09
2017-08-06T00:47:14.514Z,935.08
2017-08-06T00:47:27.922Z,935.09
2017-08-06T00:47:41.368Z,935.1
2017-08-06T00:47:54.872Z,935.11
2017-08-06T00:48:07.776Z,935.09
2017-08-06T00:48:21.198Z,935.09
2017-08-06T00:48:34.635Z,935.1
2017-08-06T00:48:48.030Z,935.06
2017-08-06T00:49:01.447Z,935.06
2017-08-06T00:49:14.903Z,935.05
2017-08-06T00:49:28.349Z,935.08
2017-08-06T00:49:41.254Z,935.05
2017-08-06T00:49:54.698Z,935.07
2017-08-06T00:50:08.120Z,935.1
2017-08-06T00:50:21.611Z,935.1
2017-08-06T00:50:35.067Z,935.1
2017-08-06T00:50:47.949Z,935.08
2017-08-06T00:51:01.336Z,935.08
2017-08-06T00:51:14.822Z,935.09
2017-08-06T00:51:28.482Z,935.07
2017-08-06T00:51:41.875Z,935.09
2017-08-06T00:51:55.340Z,935.05
2017-08-06T00:52:08.743Z,935.05
2017-08-06T00:52:22.196Z,935.08
2017-08-06T00:52:35.152Z,935.1
2017-08-06T00:52:48.577Z,935.09
2017-08-06T00:53:02.093Z,935.05
2017-08-06T00:53:15.612Z,935.09
2017-08-06T00:53:29.090Z,935.09
2017-08-06T00:53:42.531Z,935.1
2017-08-06T00:53:55.915Z,935.12
2017-08-06T00:54:08.765Z,935.09
2017-08-06T00:54:20.628Z,935.1
2017-08-06T00:54:33.971Z,935.11
2017-08-06T00:54:47.415Z,935.1
2017-08-06T00:55:00.280Z,935.07
2017-08-06T00:55:13.732Z,935.1
2017-08-06T00:55:27.142Z,935.13
2017-08-06T00:55:40.615Z,935.09
2017-08-06T00:55:53.524Z,935.1
2017-08-06T00:56:06.446Z,935.11
2017-08-06T00:56:19.942Z,935.14
2017-08-06T00:56:33.390Z,935.11
2017-08-06T00:56:46.891Z,935.1
2017-08-06T00:56:59.745Z,935.1
2017-08-06T00:57:13.196Z,935.11
2017-08-06T00:57:26.682Z,935.13
2017-08-06T00:57:40.105Z,935.08
2017-08-06T00:57:53.070Z,935.1
2017-08-06T00:58:06.473Z,935.1
2017-08-06T00:58:19.914Z,935.12
2017-08-06T00:58:32.792Z,935.12
2017-08-06T00:58:45.660Z,935.12
2017-08-06T00:58:59.102Z,935.12
2017-08-06T00:59:12.565Z,935.11
2017-08-06T00:59:26.020Z,935.13
2017-08-06T00:59:39.419Z,935.11
2017-08-06T00:59:52.851Z,935.11
2017-08-06T01:00:06.355Z,935.14
2017-08-06T01:00:19.827Z,935.14
2017-08-06T01:00:33.284Z,935.16
2017-08-06T01:00:46.210Z,935.11
2017-08-06T01:00:59.660Z,935.17
2017-08-06T01:01:13.121Z,935.14
2017-08-06T01:01:26.600Z,935.15
2017-08-06T01:01:40.063Z,935.15
2017-08-06T01:01:53.549Z,935.13
2017-08-06T01:02:06.928Z,935.13
2017-08-06T01:02:20.357Z,935.15
2017-08-06T01:02:33.260Z,935.14
2017-08-06T01:02:45.145Z,935.14
2017-08-06T01:02:58.816Z,935.13
2017-08-06T01:03:11.727Z,935.18
2017-08-06T01:03:25.152Z,935.12
2017-08-06T01:03:38.581Z,935.12
2017-08-06T01:03:52.010Z,935.14
2017-08-06T01:04:05.397Z,935.19
2017-08-06T01:04:18.882Z,935.15
2017-08-06T01:04:31.787Z,935.13
2017-08-06T01:04:44.753Z,935.14
2017-08-06T01:04:58.183Z,935.15
2017-08-06T01:05:11.602Z,935.14
2017-08-06T01:05:24.979Z,935.15
2017-08-06T01:05:37.872Z,935.15
2017-08-06T01:05:51.355Z,935.2
2017-08-06T01:06:03.754Z,935.12
2017-08-06T01:06:17.223Z,935.15
2017-08-06T01:06:30.156Z,935.13
2017-08-06T01:06:43.578Z,935.17
2017-08-06T01:06:57.014Z,935.14
2017-08-06T01:07:09.931Z,935.16
2017-08-06T01:07:23.380Z,935.15
2017-08-06T01:07:36.805Z,935.21
2017-08-06T01:07:50.242Z,935.23
2017-08-06T01:08:03.967Z,935.18
2017-08-06T01:08:17.363Z,935.17
2017-08-06T01:08:30.786Z,935.16
2017-08-06T01:08:44.429Z,935.15
2017-08-06T01:08:57.322Z,935.11
2017-08-06T01:09:10.238Z,935.15
2017-08-06T01:09:23.721Z,935.16
2017-08-06T01:09:36.613Z,935.13
2017-08-06T01:09:49.570Z,935.13
2017-08-06T01:10:02.988Z,935.09
2017-08-06T01:10:15.905Z,935.12
2017-08-06T01:10:29.375Z,935.07
2017-08-06T01:10:42.773Z,935.07
2017-08-06T01:10:56.178Z,935.09
2017-08-06T01:11:08.636Z,935.09
2017-08-06T01:11:22.057Z,935.05
2017-08-06T01:11:35.478Z,935.07
2017-08-06T01:11:48.367Z,935.08
2017-08-06T01:12:01.798Z,935.07
2017-08-06T01:12:14.715Z,935.07
2017-08-06T01:12:28.238Z,935.05
2017-08-06T01:12:41.745Z,935.06
2017-08-06T01:12:54.584Z,935.09
2017-08-06T01:13:08.035Z,935.08
2017-08-06T01:13:20.918Z,935.08
2017-08-06T01:13:34.282Z,935.07
2017-08-06T01:13:47.742Z,935.05
2017-08-06T01:14:00.116Z,935.05
2017-08-06T01:14:13.051Z,935.03
2017-08-06T01:14:26.004Z,935.03
2017-08-06T01:14:39.403Z,935.05
2017-08-06T01:14:52.802Z,935.02
2017-08-06T01:15:05.713Z,935.09
2017-08-06T01:15:19.131Z,935.08
2017-08-06T01:15:32.596Z,935.04
2017-08-06T01:15:46.234Z,935.07
2017-08-06T01:15:59.174Z,935.07
2017-08-06T01:16:12.114Z,935.06
2017-08-06T01:16:25.596Z,935.05
2017-08-06T01:16:39.002Z,935.04
2017-08-06T01:16:52.442Z,935.07
2017-08-06T01:17:04.851Z,935.08
2017-08-06T01:17:17.735Z,935.13
2017-08-06T01:17:31.208Z,935.03
2017-08-06T01:17:44.679Z,935.02
2017-08-06T01:17:57.048Z,935.05
2017-08-06T01:18:10.439Z,935.06
2017-08-06T01:18:23.888Z,935.08
2017-08-06T01:18:36.278Z,935.08
2017-08-06T01:18:49.673Z,935.07
2017-08-06T01:19:03.149Z,935.08
2017-08-06T01:19:16.601Z,935.11
2017-08-06T01:19:29.986Z,935.09
2017-08-06T01:19:43.447Z,935.07
2017-08-06T01:19:55.901Z,935.12
2017-08-06T01:20:09.324Z,935.13
2017-08-06T01:20:23.032Z,935.09
2017-08-06T01:20:36.599Z,935.09
2017-08-06T01:20:50.079Z,935.04
2017-08-06T01:21:02.992Z,935.1
2017-08-06T01:21:16.466Z,935.11
2017-08-06T01:21:29.969Z,935.05
2017-08-06T01:21:42.387Z,935.07
2017-08-06T01:21:55.305Z,935.09
2017-08-06T01:22:08.756Z,935.04
2017-08-06T01:22:22.233Z,935.07
2017-08-06T01:22:35.134Z,935.11
2017-08-06T01:22:48.536Z,935.08
2017-08-06T01:23:01.986Z,935.08
2017-08-06T01:23:14.962Z,935.05
2017-08-06T01:23:27.878Z,935.05
2017-08-06T01:23:41.333Z,935.04
2017-08-06T01:23:54.282Z,935.06
2017-08-06T01:24:07.755Z,935.06
2017-08-06T01:24:20.682Z,935.04
2017-08-06T01:24:33.638Z,935.07
2017-08-06T01:24:47.166Z,935.07
2017-08-06T01:25:00.070Z,935.06
2017-08-06T01:25:13.533Z,935.08
2017-08-06T01:25:26.444Z,935.11
2017-08-06T01:25:39.367Z,935.11
2017-08-06T01:25:52.745Z,935.14
2017-08-06T01:26:05.634Z,935.04
2017-08-06T01:26:18.529Z,935.08
2017-08-06T01:26:31.988Z,935.11
2017-08-06T01:26:44.879Z,935.14
2017-08-06T01:26:58.254Z,935.12
2017-08-06T01:27:11.164Z,935.06
2017-08-06T01:27:24.637Z,935.03
2017-08-06T01:27:38.110Z,935.07
2017-08-06T01:27:51.566Z,935.12
2017-08-06T01:28:05.090Z,935.08
2017-08-06T01:28:18.013Z,935.09
2017-08-06T01:28:31.434Z,935.11
2017-08-06T01:28:44.819Z,935.08
2017-08-06T01:28:57.723Z,935.05
2017-08-06T01:29:11.172Z,935.04
2017-08-06T01:29:24.615Z,935.01
2017-08-06T01:29:38.010Z,935.06
2017-08-06T01:29:50.946Z,935.02
2017-08-06T01:30:04.354Z,935.03
2017-08-06T01:30:17.321Z,935.01
2017-08-06T01:30:30.729Z,935.01
2017-08-06T01:30:44.189Z,935.04
2017-08-06T01:30:57.037Z,935.01
2017-08-06T01:31:10.478Z,935.05
2017-08-06T01:31:22.807Z,935.13
2017-08-06T01:31:36.304Z,935.03
2017-08-06T01:31:49.755Z,935
2017-08-06T01:32:03.147Z,935.07
2017-08-06T01:32:15.519Z,935
2017-08-06T01:32:28.902Z,934.98
2017-08-06T01:32:42.271Z,935
2017-08-06T01:32:55.699Z,934.98
2017-08-06T01:33:08.637Z,935.01
2017-08-06T01:33:21.503Z,934.95
2017-08-06T01:33:34.958Z,934.98
2017-08-06T01:33:48.439Z,934.98
2017-08-06T01:34:01.362Z,934.98
2017-08-06T01:34:14.325Z,934.97
2017-08-06T01:34:27.801Z,934.97
2017-08-06T01:34:40.737Z,935.03
2017-08-06T01:34:53.651Z,935
2017-08-06T01:35:07.110Z,934.95
2017-08-06T01:35:20.044Z,934.95
2017-08-06T01:35:33.500Z,934.99
2017-08-06T01:35:46.963Z,934.96
2017-08-06T01:36:00.426Z,934.95
2017-08-06T01:36:13.344Z,934.97
2017-08-06T01:36:26.760Z,934.98
2017-08-06T01:36:39.664Z,934.96
2017-08-06T01:36:53.102Z,934.93
2017-08-06T01:37:05.992Z,935.01
2017-08-06T01:37:19.440Z,934.98
2017-08-06T01:37:32.341Z,934.94
2017-08-06T01:37:45.726Z,934.92
2017-08-06T01:37:59.121Z,934.95
2017-08-06T01:38:13.034Z,934.93
2017-08-06T01:38:26.428Z,934.93
2017-08-06T01:38:39.768Z,934.99
2017-08-06T01:38:53.109Z,934.98
2017-08-06T01:39:06.551Z,934.96
2017-08-06T01:39:19.982Z,934.96
2017-08-06T01:39:33.467Z,934.93
2017-08-06T01:39:46.885Z,934.93
2017-08-06T01:40:00.266Z,934.96
2017-08-06T01:40:13.694Z,934.94
2017-08-06T01:40:27.128Z,934.97
2017-08-06T01:40:39.980Z,934.92
2017-08-06T01:40:52.367Z,934.95
2017-08-06T01:41:05.807Z,935.01
2017-08-06T01:41:19.271Z,934.97
2017-08-06T01:41:32.697Z,934.95
2017-08-06T01:41:46.163Z,934.96
2017-08-06T01:41:59.532Z,934.95
2017-08-06T01:42:12.500Z,934.93
2017-08-06T01:42:25.386Z,934.93
2017-08-06T01:42:38.795Z,934.94
2017-08-06T01:42:52.253Z,934.95
2017-08-06T01:43:05.157Z,934.95
2017-08-06T01:43:18.742Z,934.93
2017-08-06T01:43:32.188Z,934.95
2017-08-06T01:43:45.619Z,934.94
2017-08-06T01:43:59.078Z,934.95
2017-08-06T01:44:12.477Z,934.94
2017-08-06T01:44:25.377Z,934.95
2017-08-06T01:44:38.845Z,934.95
2017-08-06T01:44:51.756Z,934.9
2017-08-06T01:45:04.718Z,934.91
2017-08-06T01:45:18.186Z,934.95
2017-08-06T01:45:31.065Z,934.98
2017-08-06T01:45:44.480Z,934.94
2017-08-06T01:45:57.886Z,934.88
2017-08-06T01:46:11.308Z,934.93
2017-08-06T01:46:24.776Z,934.93
2017-08-06T01:46:38.291Z,934.95
2017-08-06T01:46:51.705Z,934.97
2017-08-06T01:47:04.626Z,934.92
2017-08-06T01:47:18.061Z,934.95
2017-08-06T01:47:31.514Z,934.92
2017-08-06T01:47:44.967Z,934.89
2017-08-06T01:47:58.411Z,934.92
2017-08-06T01:48:11.853Z,934.91
2017-08-06T01:48:25.325Z,934.92
2017-08-06T01:48:38.231Z,934.94
2017-08-06T01:48:51.647Z,934.93
2017-08-06T01:49:04.082Z,934.96
2017-08-06T01:49:17.481Z,934.93
2017-08-06T01:49:30.908Z,934.94
2017-08-06T01:49:44.317Z,934.92
2017-08-06T01:49:57.260Z,934.89
2017-08-06T01:50:10.171Z,934.9
2017-08-06T01:50:23.105Z,934.92
2017-08-06T01:50:36.488Z,934.9
2017-08-06T01:50:49.868Z,934.92
2017-08-06T01:51:03.352Z,934.91
2017-08-06T01:51:16.845Z,934.92
2017-08-06T01:51:30.239Z,934.96
2017-08-06T01:51:43.716Z,935.03
2017-08-06T01:51:57.102Z,934.99
2017-08-06T01:52:10.449Z,935.04
2017-08-06T01:52:23.848Z,934.96
2017-08-06T01:52:36.770Z,935
2017-08-06T01:52:50.178Z,934.99
2017-08-06T01:53:03.168Z,934.97
2017-08-06T01:53:16.701Z,934.95
2017-08-06T01:53:30.081Z,934.98
2017-08-06T01:53:43.021Z,934.99
2017-08-06T01:53:56.464Z,934.95
2017-08-06T01:54:09.883Z,934.95
2017-08-06T01:54:23.290Z,934.94
2017-08-06T01:54:36.272Z,934.91
2017-08-06T01:54:49.755Z,934.93
2017-08-06T01:55:03.184Z,934.97
2017-08-06T01:55:16.595Z,934.93
2017-08-06T01:55:29.974Z,934.92
2017-08-06T01:55:42.367Z,934.93
2017-08-06T01:55:55.774Z,934.9
2017-08-06T01:56:09.255Z,934.93
2017-08-06T01:56:22.693Z,934.94
2017-08-06T01:56:35.632Z,934.96
2017-08-06T01:56:48.032Z,934.96
2017-08-06T01:57:01.539Z,934.95
2017-08-06T01:57:15.027Z,934.95
2017-08-06T01:57:28.475Z,934.95
2017-08-06T01:57:41.936Z,934.92
2017-08-06T01:57:55.419Z,934.96
2017-08-06T01:58:08.936Z,934.95
2017-08-06T01:58:22.489Z,934.96
2017-08-06T01:58:35.897Z,934.97
2017-08-06T01:58:49.288Z,934.97
2017-08-06T01:59:02.690Z,934.94
2017-08-06T01:59:16.120Z,934.96
2017-08-06T01:59:28.989Z,934.96
2017-08-06T01:59:42.431Z,934.96
2017-08-06T01:59:55.308Z,934.94
2017-08-06T02:00:08.726Z,934.93
2017-08-06T02:00:22.184Z,934.92
2017-08-06T02:00:35.077Z,934.98
2017-08-06T02:00:48.044Z,934.96
2017-08-06T02:01:01.504Z,934.93
2017-08-06T02:01:14.981Z,934.97
2017-08-06T02:01:28.441Z,934.95
2017-08-06T02:01:41.913Z,934.99
2017-08-06T02:01:55.378Z,934.98
2017-08-06T02:02:08.734Z,934.94
2017-08-06T02:02:22.132Z,934.95
2017-08-06T02:02:35.051Z,934.99
2017-08-06T02:02:47.986Z,935
2017-08-06T02:03:01.424Z,934.98
2017-08-06T02:03:14.873Z,935.01
2017-08-06T02:03:27.956Z,934.96
2017-08-06T02:03:40.879Z,934.94
2017-08-06T02:03:54.317Z,934.97
2017-08-06T02:04:07.242Z,934.96
2017-08-06T02:04:20.676Z,934.99
2017-08-06T02:04:33.610Z,935
2017-08-06T02:04:47.030Z,934.98
2017-08-06T02:05:00.466Z,934.99
2017-08-06T02:05:13.373Z,934.96
2017-08-06T02:05:26.833Z,934.95
2017-08-06T02:05:39.260Z,934.91
2017-08-06T02:05:52.154Z,934.95
2017-08-06T02:06:05.609Z,934.95
2017-08-06T02:06:19.085Z,934.91
2017-08-06T02:06:32.606Z,934.95
2017-08-06T02:06:45.507Z,934.9
2017-08-06T02:06:58.421Z,934.93
2017-08-06T02:07:11.909Z,934.93
2017-08-06T02:07:24.826Z,934.91
2017-08-06T02:07:38.358Z,934.92
2017-08-06T02:07:51.247Z,934.86
2017-08-06T02:08:04.084Z,934.87
2017-08-06T02:08:16.978Z,934.91
2017-08-06T02:08:30.299Z,934.92
2017-08-06T02:08:43.789Z,934.88
2017-08-06T02:08:57.252Z,934.94
2017-08-06T02:09:10.690Z,934.91
2017-08-06T02:09:23.139Z,934.92
2017-08-06T02:09:35.504Z,934.93
2017-08-06T02:09:48.927Z,934.9
2017-08-06T02:10:02.318Z,934.9
2017-08-06T02:10:15.235Z,934.92
2017-08-06T02:10:28.684Z,934.89
2017-08-06T02:10:41.665Z,934.9
2017-08-06T02:10:55.145Z,934.93
2017-08-06T02:11:08.561Z,934.92
2017-08-06T02:11:22.010Z,934.94
2017-08-06T02:11:35.520Z,934.93
2017-08-06T02:11:48.411Z,934.95
2017-08-06T02:12:01.853Z,934.92
2017-08-06T02:12:15.313Z,934.96
2017-08-06T02:12:28.741Z,934.9
2017-08-06T02:12:42.123Z,934.95
2017-08-06T02:12:54.502Z,934.91
2017-08-06T02:13:07.964Z,934.92
2017-08-06T02:13:21.407Z,934.92
2017-08-06T02:13:34.819Z,934.92
2017-08-06T02:13:48.329Z,934.92
2017-08-06T02:14:01.832Z,934.93
2017-08-06T02:14:15.263Z,934.9
2017-08-06T02:14:28.686Z,934.88
2017-08-06T02:14:41.587Z,934.92
2017-08-06T02:14:54.475Z,934.97
2017-08-06T02:15:07.903Z,934.92
2017-08-06T02:15:21.333Z,934.93
2017-08-06T02:15:34.724Z,934.97
2017-08-06T02:15:48.230Z,934.93
2017-08-06T02:16:02.360Z,934.92
2017-08-06T02:16:15.789Z,934.93
2017-08-06T02:16:28.733Z,934.92
2017-08-06T02:16:42.145Z,934.91
2017-08-06T02:16:55.237Z,934.91
2017-08-06T02:17:07.598Z,934.92
2017-08-06T02:17:21.049Z,934.91
2017-08-06T02:17:34.572Z,934.93
2017-08-06T02:17:48.009Z,934.94
2017-08-06T02:18:01.460Z,934.9
2017-08-06T02:18:14.900Z,934.87
2017-08-06T02:18:27.880Z,934.9
2017-08-06T02:18:41.348Z,934.93
2017-08-06T02:18:54.295Z,934.92
2017-08-06T02:19:07.161Z,934.94
2017-08-06T02:19:20.614Z,934.91
2017-08-06T02:19:33.531Z,934.9
2017-08-06T02:19:46.973Z,934.93
2017-08-06T02:20:00.489Z,934.92
2017-08-06T02:20:13.965Z,934.94
2017-08-06T02:20:26.893Z,934.93
2017-08-06T02:20:40.344Z,934.94
2017-08-06T02:20:53.262Z,934.92
2017-08-06T02:21:05.624Z,934.92
2017-08-06T02:21:19.120Z,934.94
2017-08-06T02:21:32.104Z,934.92
2017-08-06T02:21:45.623Z,934.94
2017-08-06T02:21:59.080Z,934.94
2017-08-06T02:22:12.528Z,934.9
2017-08-06T02:22:26.754Z,934.94
2017-08-06T02:22:40.271Z,934.9
2017-08-06T02:22:53.712Z,934.88
2017-08-06T02:23:07.103Z,934.96
2017-08-06T02:23:20.526Z,934.92
2017-08-06T02:23:34.093Z,934.89
2017-08-06T02:23:47.534Z,934.87
2017-08-06T02:24:00.996Z,934.88
2017-08-06T02:24:13.886Z,934.88
2017-08-06T02:24:27.391Z,934.93
2017-08-06T02:24:40.907Z,934.91
2017-08-06T02:24:53.794Z,934.91
2017-08-06T02:25:06.713Z,934.88
2017-08-06T02:25:20.224Z,934.89
2017-08-06T02:25:33.698Z,934.89
2017-08-06T02:25:47.229Z,934.9
2017-08-06T02:26:00.189Z,934.85
2017-08-06T02:26:13.681Z,934.9
2017-08-06T02:26:27.103Z,934.9
2017-08-06T02:26:40.598Z,934.83
2017-08-06T02:26:53.583Z,934.85
2017-08-06T02:27:06.512Z,934.93
2017-08-06T02:27:19.906Z,934.89
2017-08-06T02:27:33.299Z,934.87
2017-08-06T02:27:46.961Z,934.9
2017-08-06T02:27:59.919Z,934.88
2017-08-06T02:28:11.760Z,934.86
2017-08-06T02:28:25.183Z,934.86
2017-08-06T02:28:38.717Z,934.87
2017-08-06T02:28:51.692Z,934.9
2017-08-06T02:29:05.214Z,934.87
2017-08-06T02:29:17.606Z,934.87
2017-08-06T02:29:30.998Z,934.89
2017-08-06T02:29:43.916Z,934.86
2017-08-06T02:29:57.327Z,934.85
2017-08-06T02:30:10.234Z,934.83
2017-08-06T02:30:23.116Z,934.86
2017-08-06T02:30:36.642Z,934.86
2017-08-06T02:30:50.118Z,934.79
2017-08-06T02:31:03.606Z,934.81
2017-08-06T02:31:16.559Z,934.83
2017-08-06T02:31:31.409Z,934.8
2017-08-06T02:31:44.936Z,934.85
2017-08-06T02:31:58.418Z,934.86
2017-08-06T02:32:11.883Z,934.87
2017-08-06T02:32:25.321Z,934.87
2017-08-06T02:32:38.755Z,934.88
2017-08-06T02:32:51.700Z,934.83
2017-08-06T02:33:04.633Z,934.82
2017-08-06T02:33:17.545Z,934.85
2017-08-06T02:33:30.951Z,934.82
2017-08-06T02:33:44.433Z,934.81
2017-08-06T02:33:57.870Z,934.85
2017-08-06T02:34:11.325Z,934.79
2017-08-06T02:34:23.708Z,934.78
2017-08-06T02:34:37.117Z,934.82
2017-08-06T02:34:50.043Z,934.8
2017-08-06T02:35:03.422Z,934.84
2017-08-06T02:35:16.332Z,934.84
2017-08-06T02:35:29.795Z,934.82
2017-08-06T02:35:42.702Z,934.8
2017-08-06T02:35:56.189Z,934.8
2017-08-06T02:36:09.583Z,934.79
2017-08-06T02:36:22.461Z,934.81
2017-08-06T02:36:35.941Z,934.79
2017-08-06T02:36:49.342Z,934.8
2017-08-06T02:37:02.249Z,934.79
2017-08-06T02:37:15.143Z,934.79
2017-08-06T02:37:27.575Z,934.8
2017-08-06T02:37:40.463Z,934.8
2017-08-06T02:37:53.911Z,934.83
2017-08-06T02:38:07.368Z,934.86
2017-08-06T02:38:20.867Z,934.82
2017-08-06T02:38:34.643Z,934.84
2017-08-06T02:38:48.015Z,934.8
2017-08-06T02:39:01.482Z,934.8
2017-08-06T02:39:13.861Z,934.83
2017-08-06T02:39:27.816Z,934.79
2017-08-06T02:39:41.234Z,934.82
2017-08-06T02:39:54.634Z,934.82
2017-08-06T02:40:08.047Z,934.83
2017-08-06T02:40:21.488Z,934.8
2017-08-06T02:40:34.889Z,934.8
2017-08-06T02:40:48.371Z,934.76
2017-08-06T02:41:00.744Z,934.75
2017-08-06T02:41:14.170Z,934.77
2017-08-06T02:41:27.652Z,934.79
2017-08-06T02:41:40.568Z,934.77
2017-08-06T02:41:53.480Z,934.78
2017-08-06T02:42:06.449Z,934.77
2017-08-06T02:42:19.412Z,934.78
2017-08-06T02:42:32.795Z,934.81
2017-08-06T02:42:46.190Z,934.83
2017-08-06T02:42:58.566Z,934.73
2017-08-06T02:43:12.037Z,934.73
2017-08-06T02:43:25.514Z,934.75
2017-08-06T02:43:38.989Z,934.74
2017-08-06T02:43:52.426Z,934.77
2017-08-06T02:44:05.869Z,934.83
2017-08-06T02:44:18.767Z,934.77
2017-08-06T02:44:32.464Z,934.74
2017-08-06T02:44:45.843Z,934.8
2017-08-06T02:44:59.293Z,934.78
2017-08-06T02:45:12.684Z,934.82
2017-08-06T02:45:25.567Z,934.84
2017-08-06T02:45:39.029Z,934.81
2017-08-06T02:45:51.969Z,934.75
2017-08-06T02:46:05.419Z,934.77
2017-08-06T02:46:17.844Z,934.78
2017-08-06T02:46:30.817Z,934.8
2017-08-06T02:46:44.502Z,934.79
2017-08-06T02:46:58.026Z,934.79
2017-08-06T02:47:10.916Z,934.77
2017-08-06T02:47:24.378Z,934.83
2017-08-06T02:47:37.769Z,934.77
2017-08-06T02:47:50.673Z,934.75
2017-08-06T02:48:03.594Z,934.76
2017-08-06T02:48:16.452Z,934.77
2017-08-06T02:48:29.826Z,934.8
2017-08-06T02:48:42.770Z,934.75
2017-08-06T02:48:55.735Z,934.81
2017-08-06T02:49:08.682Z,934.77
2017-08-06T02:49:22.094Z,934.76
2017-08-06T02:49:34.991Z,934.77
2017-08-06T02:49:48.453Z,934.83